sensor_id;sensor_type;location;lat;lon;timestamp;P1;durP1;ratioP1;P2;durP2;ratioP2
65182;SDS011;51771;51.068;-1.780;2023-07-28T00:01:26;2.53;;;0.57;;
65182;SDS011;51771;51.068;-1.780;2023-07-28T00:03:51;3.10;;;0.60;;
65182;SDS011;51771;51.068;-1.780;2023-07-28T00:06:16;1.43;;;0.60;;
65182;SDS011;51771;51.068;-1.780;2023-07-28T00:08:41;1.75;;;0.60;;
65182;SDS011;51771;51.068;-1.780;2023-07-28T00:11:13;2.05;;;0.68;;
65182;SDS011;51771;51.068;-1.780;2023-07-28T00:13:39;3.25;;;0.70;;
65182;SDS011;51771;51.068;-1.780;2023-07-28T00:16:04;2.10;;;0.70;;
65182;SDS011;51771;51.068;-1.780;2023-07-28T00:18:30;1.75;;;0.50;;
65182;SDS011;51771;51.068;-1.780;2023-07-28T00:20:55;1.40;;;0.57;;
65182;SDS011;51771;51.068;-1.780;2023-07-28T00:23:20;1.57;;;0.40;;
65182;SDS011;51771;51.068;-1.780;2023-07-28T00:25:45;1.20;;;0.60;;
65182;SDS011;51771;51.068;-1.780;2023-07-28T00:28:11;2.13;;;0.77;;
65182;SDS011;51771;51.068;-1.780;2023-07-28T00:30:36;2.15;;;0.60;;
65182;SDS011;51771;51.068;-1.780;2023-07-28T00:33:01;2.10;;;0.70;;
65182;SDS011;51771;51.068;-1.780;2023-07-28T00:35:27;1.27;;;0.43;;
65182;SDS011;51771;51.068;-1.780;2023-07-28T00:37:52;1.77;;;0.60;;
65182;SDS011;51771;51.068;-1.780;2023-07-28T00:40:17;1.67;;;0.70;;
65182;SDS011;51771;51.068;-1.780;2023-07-28T00:42:42;1.75;;;0.60;;
65182;SDS011;51771;51.068;-1.780;2023-07-28T00:45:08;1.00;;;0.35;;
65182;SDS011;51771;51.068;-1.780;2023-07-28T00:47:33;1.25;;;0.43;;
65182;SDS011;51771;51.068;-1.780;2023-07-28T00:49:59;1.20;;;0.45;;
65182;SDS011;51771;51.068;-1.780;2023-07-28T00:52:24;1.05;;;0.40;;
65182;SDS011;51771;51.068;-1.780;2023-07-28T00:54:49;0.57;;;0.35;;
65182;SDS011;51771;51.068;-1.780;2023-07-28T00:57:15;0.30;;;0.23;;
65182;SDS011;51771;51.068;-1.780;2023-07-28T00:59:40;0.75;;;0.30;;
65182;SDS011;51771;51.068;-1.780;2023-07-28T01:02:05;1.83;;;0.50;;
65182;SDS011;51771;51.068;-1.780;2023-07-28T01:04:31;1.48;;;0.47;;
65182;SDS011;51771;51.068;-1.780;2023-07-28T01:07:15;0.90;;;0.30;;
65182;SDS011;51771;51.068;-1.780;2023-07-28T01:09:50;2.13;;;0.50;;
65182;SDS011;51771;51.068;-1.780;2023-07-28T01:12:17;0.98;;;0.28;;
65182;SDS011;51771;51.068;-1.780;2023-07-28T01:14:43;5.35;;;0.80;;
65182;SDS011;51771;51.068;-1.780;2023-07-28T01:17:08;3.03;;;0.88;;
65182;SDS011;51771;51.068;-1.780;2023-07-28T01:19:33;0.68;;;0.30;;
65182;SDS011;51771;51.068;-1.780;2023-07-28T01:27:24;1.77;;;0.57;;
65182;SDS011;51771;51.068;-1.780;2023-07-28T01:29:50;0.98;;;0.30;;
65182;SDS011;51771;51.068;-1.780;2023-07-28T01:32:15;2.03;;;0.50;;
65182;SDS011;51771;51.068;-1.780;2023-07-28T01:34:41;1.35;;;0.50;;
65182;SDS011;51771;51.068;-1.780;2023-07-28T01:37:06;1.90;;;0.50;;
65182;SDS011;51771;51.068;-1.780;2023-07-28T01:39:31;0.60;;;0.30;;
65182;SDS011;51771;51.068;-1.780;2023-07-28T01:41:56;1.48;;;0.82;;
65182;SDS011;51771;51.068;-1.780;2023-07-28T01:44:22;1.40;;;0.63;;
65182;SDS011;51771;51.068;-1.780;2023-07-28T01:46:47;0.40;;;0.20;;
65182;SDS011;51771;51.068;-1.780;2023-07-28T01:49:12;1.43;;;0.43;;
65182;SDS011;51771;51.068;-1.780;2023-07-28T01:51:37;1.27;;;0.40;;
65182;SDS011;51771;51.068;-1.780;2023-07-28T01:54:02;0.93;;;0.30;;
65182;SDS011;51771;51.068;-1.780;2023-07-28T01:56:28;0.77;;;0.30;;
65182;SDS011;51771;51.068;-1.780;2023-07-28T01:58:53;1.00;;;0.50;;
65182;SDS011;51771;51.068;-1.780;2023-07-28T02:01:18;0.87;;;0.20;;
65182;SDS011;51771;51.068;-1.780;2023-07-28T02:03:43;0.87;;;0.30;;
65182;SDS011;51771;51.068;-1.780;2023-07-28T02:06:09;1.57;;;0.30;;
65182;SDS011;51771;51.068;-1.780;2023-07-28T02:08:34;2.37;;;0.90;;
65182;SDS011;51771;51.068;-1.780;2023-07-28T02:10:59;1.13;;;0.50;;
65182;SDS011;51771;51.068;-1.780;2023-07-28T02:13:24;1.77;;;0.60;;
65182;SDS011;51771;51.068;-1.780;2023-07-28T02:15:49;3.57;;;0.60;;
65182;SDS011;51771;51.068;-1.780;2023-07-28T02:18:15;2.37;;;0.40;;
65182;SDS011;51771;51.068;-1.780;2023-07-28T02:20:40;0.73;;;0.30;;
65182;SDS011;51771;51.068;-1.780;2023-07-28T02:23:05;1.17;;;0.50;;
65182;SDS011;51771;51.068;-1.780;2023-07-28T02:25:30;1.20;;;0.40;;
65182;SDS011;51771;51.068;-1.780;2023-07-28T02:27:56;0.73;;;0.23;;
65182;SDS011;51771;51.068;-1.780;2023-07-28T02:30:21;0.90;;;0.30;;
65182;SDS011;51771;51.068;-1.780;2023-07-28T02:32:46;0.73;;;0.25;;
65182;SDS011;51771;51.068;-1.780;2023-07-28T02:35:11;0.80;;;0.30;;
65182;SDS011;51771;51.068;-1.780;2023-07-28T02:37:37;0.75;;;0.28;;
65182;SDS011;51771;51.068;-1.780;2023-07-28T02:40:02;0.47;;;0.22;;
65182;SDS011;51771;51.068;-1.780;2023-07-28T02:42:28;0.52;;;0.20;;
65182;SDS011;51771;51.068;-1.780;2023-07-28T02:44:53;1.00;;;0.47;;
65182;SDS011;51771;51.068;-1.780;2023-07-28T02:47:18;0.73;;;0.20;;
65182;SDS011;51771;51.068;-1.780;2023-07-28T02:49:44;0.47;;;0.20;;
65182;SDS011;51771;51.068;-1.780;2023-07-28T02:52:09;0.57;;;0.20;;
65182;SDS011;51771;51.068;-1.780;2023-07-28T02:54:34;0.55;;;0.20;;
65182;SDS011;51771;51.068;-1.780;2023-07-28T02:56:59;0.80;;;0.30;;
65182;SDS011;51771;51.068;-1.780;2023-07-28T02:59:25;0.83;;;0.20;;
65182;SDS011;51771;51.068;-1.780;2023-07-28T03:01:50;0.68;;;0.30;;
65182;SDS011;51771;51.068;-1.780;2023-07-28T03:04:17;0.55;;;0.20;;
65182;SDS011;51771;51.068;-1.780;2023-07-28T03:06:42;0.98;;;0.20;;
65182;SDS011;51771;51.068;-1.780;2023-07-28T03:09:07;0.10;;;0.00;;
65182;SDS011;51771;51.068;-1.780;2023-07-28T03:11:32;0.70;;;0.20;;
65182;SDS011;51771;51.068;-1.780;2023-07-28T03:13:58;0.85;;;0.13;;
65182;SDS011;51771;51.068;-1.780;2023-07-28T03:16:23;0.60;;;0.30;;
65182;SDS011;51771;51.068;-1.780;2023-07-28T03:18:48;0.37;;;0.20;;
65182;SDS011;51771;51.068;-1.780;2023-07-28T03:21:14;0.77;;;0.13;;
65182;SDS011;51771;51.068;-1.780;2023-07-28T03:23:39;0.85;;;0.20;;
65182;SDS011;51771;51.068;-1.780;2023-07-28T03:26:04;0.80;;;0.23;;
65182;SDS011;51771;51.068;-1.780;2023-07-28T03:28:31;1.70;;;0.30;;
65182;SDS011;51771;51.068;-1.780;2023-07-28T03:30:56;1.38;;;0.30;;
65182;SDS011;51771;51.068;-1.780;2023-07-28T03:33:21;0.13;;;0.10;;
65182;SDS011;51771;51.068;-1.780;2023-07-28T03:35:46;0.83;;;0.30;;
65182;SDS011;51771;51.068;-1.780;2023-07-28T03:38:12;0.40;;;0.20;;
65182;SDS011;51771;51.068;-1.780;2023-07-28T03:40:37;0.63;;;0.30;;
65182;SDS011;51771;51.068;-1.780;2023-07-28T03:43:05;0.43;;;0.17;;
65182;SDS011;51771;51.068;-1.780;2023-07-28T03:45:30;0.40;;;0.20;;
65182;SDS011;51771;51.068;-1.780;2023-07-28T03:47:56;1.58;;;0.30;;
65182;SDS011;51771;51.068;-1.780;2023-07-28T03:50:21;0.88;;;0.28;;
65182;SDS011;51771;51.068;-1.780;2023-07-28T03:52:46;0.20;;;0.20;;
65182;SDS011;51771;51.068;-1.780;2023-07-28T03:55:11;1.65;;;0.25;;
65182;SDS011;51771;51.068;-1.780;2023-07-28T03:57:37;0.40;;;0.13;;
65182;SDS011;51771;51.068;-1.780;2023-07-28T04:00:02;0.88;;;0.20;;
65182;SDS011;51771;51.068;-1.780;2023-07-28T04:02:28;0.57;;;0.20;;
65182;SDS011;51771;51.068;-1.780;2023-07-28T04:04:53;0.97;;;0.20;;
65182;SDS011;51771;51.068;-1.780;2023-07-28T04:07:19;0.20;;;0.20;;
65182;SDS011;51771;51.068;-1.780;2023-07-28T04:09:44;0.53;;;0.30;;
65182;SDS011;51771;51.068;-1.780;2023-07-28T04:12:10;0.73;;;0.30;;
65182;SDS011;51771;51.068;-1.780;2023-07-28T04:14:35;1.20;;;0.27;;
65182;SDS011;51771;51.068;-1.780;2023-07-28T04:17:01;0.47;;;0.22;;
65182;SDS011;51771;51.068;-1.780;2023-07-28T04:19:26;0.47;;;0.10;;
65182;SDS011;51771;51.068;-1.780;2023-07-28T04:21:54;0.63;;;0.20;;
65182;SDS011;51771;51.068;-1.780;2023-07-28T04:24:19;0.67;;;0.20;;
65182;SDS011;51771;51.068;-1.780;2023-07-28T04:26:44;0.13;;;0.10;;
65182;SDS011;51771;51.068;-1.780;2023-07-28T04:29:13;0.47;;;0.17;;
65182;SDS011;51771;51.068;-1.780;2023-07-28T04:31:39;1.53;;;0.27;;
65182;SDS011;51771;51.068;-1.780;2023-07-28T04:34:04;0.57;;;0.23;;
65182;SDS011;51771;51.068;-1.780;2023-07-28T04:36:29;2.90;;;0.52;;
65182;SDS011;51771;51.068;-1.780;2023-07-28T04:38:54;0.30;;;0.17;;
65182;SDS011;51771;51.068;-1.780;2023-07-28T04:41:19;0.63;;;0.25;;
65182;SDS011;51771;51.068;-1.780;2023-07-28T04:43:46;0.93;;;0.20;;
65182;SDS011;51771;51.068;-1.780;2023-07-28T04:46:11;0.50;;;0.20;;
65182;SDS011;51771;51.068;-1.780;2023-07-28T04:48:36;0.90;;;0.20;;
65182;SDS011;51771;51.068;-1.780;2023-07-28T04:51:01;0.43;;;0.20;;
65182;SDS011;51771;51.068;-1.780;2023-07-28T04:53:27;0.75;;;0.13;;
65182;SDS011;51771;51.068;-1.780;2023-07-28T04:55:52;0.10;;;0.10;;
65182;SDS011;51771;51.068;-1.780;2023-07-28T04:58:17;0.27;;;0.13;;
65182;SDS011;51771;51.068;-1.780;2023-07-28T05:00:42;0.83;;;0.37;;
65182;SDS011;51771;51.068;-1.780;2023-07-28T05:03:07;0.40;;;0.33;;
65182;SDS011;51771;51.068;-1.780;2023-07-28T05:05:33;1.50;;;0.30;;
65182;SDS011;51771;51.068;-1.780;2023-07-28T05:07:58;0.82;;;0.32;;
65182;SDS011;51771;51.068;-1.780;2023-07-28T05:10:23;2.00;;;0.50;;
65182;SDS011;51771;51.068;-1.780;2023-07-28T05:12:48;0.17;;;0.10;;
65182;SDS011;51771;51.068;-1.780;2023-07-28T05:15:14;0.35;;;0.17;;
65182;SDS011;51771;51.068;-1.780;2023-07-28T05:17:40;1.10;;;0.30;;
65182;SDS011;51771;51.068;-1.780;2023-07-28T05:20:05;0.90;;;0.30;;
65182;SDS011;51771;51.068;-1.780;2023-07-28T05:22:30;1.67;;;0.32;;
65182;SDS011;51771;51.068;-1.780;2023-07-28T05:24:56;1.98;;;0.20;;
65182;SDS011;51771;51.068;-1.780;2023-07-28T05:27:21;0.20;;;0.05;;
65182;SDS011;51771;51.068;-1.780;2023-07-28T05:29:46;0.83;;;0.30;;
65182;SDS011;51771;51.068;-1.780;2023-07-28T05:32:11;0.23;;;0.00;;
65182;SDS011;51771;51.068;-1.780;2023-07-28T05:34:37;1.45;;;0.43;;
65182;SDS011;51771;51.068;-1.780;2023-07-28T05:37:02;0.60;;;0.30;;
65182;SDS011;51771;51.068;-1.780;2023-07-28T05:39:27;1.15;;;0.43;;
65182;SDS011;51771;51.068;-1.780;2023-07-28T05:41:52;0.77;;;0.30;;
65182;SDS011;51771;51.068;-1.780;2023-07-28T05:44:18;1.17;;;0.40;;
65182;SDS011;51771;51.068;-1.780;2023-07-28T05:46:43;2.15;;;0.80;;
65182;SDS011;51771;51.068;-1.780;2023-07-28T05:49:09;1.00;;;0.30;;
65182;SDS011;51771;51.068;-1.780;2023-07-28T05:51:34;0.30;;;0.13;;
65182;SDS011;51771;51.068;-1.780;2023-07-28T05:54:00;0.43;;;0.10;;
65182;SDS011;51771;51.068;-1.780;2023-07-28T05:56:25;0.93;;;0.20;;
65182;SDS011;51771;51.068;-1.780;2023-07-28T05:58:50;1.87;;;0.40;;
65182;SDS011;51771;51.068;-1.780;2023-07-28T06:01:16;1.85;;;0.38;;
65182;SDS011;51771;51.068;-1.780;2023-07-28T06:03:41;0.30;;;0.25;;
65182;SDS011;51771;51.068;-1.780;2023-07-28T06:06:06;0.10;;;0.10;;
65182;SDS011;51771;51.068;-1.780;2023-07-28T06:08:32;0.20;;;0.20;;
65182;SDS011;51771;51.068;-1.780;2023-07-28T06:10:57;2.25;;;0.20;;
65182;SDS011;51771;51.068;-1.780;2023-07-28T06:13:22;0.90;;;0.27;;
65182;SDS011;51771;51.068;-1.780;2023-07-28T06:15:48;0.70;;;0.20;;
65182;SDS011;51771;51.068;-1.780;2023-07-28T06:18:13;0.40;;;0.10;;
65182;SDS011;51771;51.068;-1.780;2023-07-28T06:20:41;1.08;;;0.43;;
65182;SDS011;51771;51.068;-1.780;2023-07-28T06:23:07;0.70;;;0.20;;
65182;SDS011;51771;51.068;-1.780;2023-07-28T06:25:32;1.00;;;0.40;;
65182;SDS011;51771;51.068;-1.780;2023-07-28T06:27:57;1.85;;;0.30;;
65182;SDS011;51771;51.068;-1.780;2023-07-28T06:30:22;0.00;;;0.00;;
65182;SDS011;51771;51.068;-1.780;2023-07-28T06:32:47;0.87;;;0.43;;
65182;SDS011;51771;51.068;-1.780;2023-07-28T06:35:13;0.68;;;0.22;;
65182;SDS011;51771;51.068;-1.780;2023-07-28T06:37:38;0.40;;;0.20;;
65182;SDS011;51771;51.068;-1.780;2023-07-28T06:40:05;0.75;;;0.17;;
65182;SDS011;51771;51.068;-1.780;2023-07-28T06:42:30;0.82;;;0.25;;
65182;SDS011;51771;51.068;-1.780;2023-07-28T06:44:56;0.88;;;0.20;;
65182;SDS011;51771;51.068;-1.780;2023-07-28T06:47:21;0.68;;;0.22;;
65182;SDS011;51771;51.068;-1.780;2023-07-28T06:49:50;1.40;;;0.28;;
65182;SDS011;51771;51.068;-1.780;2023-07-28T06:52:15;0.70;;;0.43;;
65182;SDS011;51771;51.068;-1.780;2023-07-28T06:54:40;1.30;;;0.27;;
65182;SDS011;51771;51.068;-1.780;2023-07-28T06:57:05;1.07;;;0.40;;
65182;SDS011;51771;51.068;-1.780;2023-07-28T06:59:31;4.32;;;0.30;;
65182;SDS011;51771;51.068;-1.780;2023-07-28T07:01:57;0.30;;;0.30;;
65182;SDS011;51771;51.068;-1.780;2023-07-28T07:04:22;0.63;;;0.45;;
65182;SDS011;51771;51.068;-1.780;2023-07-28T07:06:47;1.20;;;0.40;;
65182;SDS011;51771;51.068;-1.780;2023-07-28T07:09:12;0.68;;;0.28;;
65182;SDS011;51771;51.068;-1.780;2023-07-28T07:11:39;0.43;;;0.28;;
65182;SDS011;51771;51.068;-1.780;2023-07-28T07:14:05;1.02;;;0.13;;
65182;SDS011;51771;51.068;-1.780;2023-07-28T07:16:30;2.33;;;0.40;;
65182;SDS011;51771;51.068;-1.780;2023-07-28T07:18:55;1.03;;;0.37;;
65182;SDS011;51771;51.068;-1.780;2023-07-28T07:21:20;0.73;;;0.30;;
65182;SDS011;51771;51.068;-1.780;2023-07-28T07:23:48;1.30;;;0.40;;
65182;SDS011;51771;51.068;-1.780;2023-07-28T07:26:14;0.52;;;0.30;;
65182;SDS011;51771;51.068;-1.780;2023-07-28T07:28:39;0.93;;;0.28;;
65182;SDS011;51771;51.068;-1.780;2023-07-28T07:31:04;0.25;;;0.10;;
65182;SDS011;51771;51.068;-1.780;2023-07-28T07:33:36;1.35;;;0.57;;
65182;SDS011;51771;51.068;-1.780;2023-07-28T07:36:02;0.20;;;0.00;;
65182;SDS011;51771;51.068;-1.780;2023-07-28T07:38:28;0.43;;;0.20;;
65182;SDS011;51771;51.068;-1.780;2023-07-28T07:40:53;3.38;;;1.17;;
65182;SDS011;51771;51.068;-1.780;2023-07-28T07:43:18;2.10;;;0.35;;
65182;SDS011;51771;51.068;-1.780;2023-07-28T07:45:45;0.82;;;0.25;;
65182;SDS011;51771;51.068;-1.780;2023-07-28T07:48:12;0.32;;;0.17;;
65182;SDS011;51771;51.068;-1.780;2023-07-28T07:50:37;0.70;;;0.30;;
65182;SDS011;51771;51.068;-1.780;2023-07-28T07:53:02;0.33;;;0.07;;
65182;SDS011;51771;51.068;-1.780;2023-07-28T07:55:27;1.50;;;0.47;;
65182;SDS011;51771;51.068;-1.780;2023-07-28T07:57:52;0.70;;;0.20;;
65182;SDS011;51771;51.068;-1.780;2023-07-28T08:00:18;0.73;;;0.40;;
65182;SDS011;51771;51.068;-1.780;2023-07-28T08:02:43;0.22;;;0.10;;
65182;SDS011;51771;51.068;-1.780;2023-07-28T08:05:08;0.10;;;0.10;;
65182;SDS011;51771;51.068;-1.780;2023-07-28T08:07:35;0.93;;;0.40;;
65182;SDS011;51771;51.068;-1.780;2023-07-28T08:10:00;1.90;;;0.30;;
65182;SDS011;51771;51.068;-1.780;2023-07-28T08:12:26;0.28;;;0.10;;
65182;SDS011;51771;51.068;-1.780;2023-07-28T08:14:51;0.43;;;0.20;;
65182;SDS011;51771;51.068;-1.780;2023-07-28T08:17:16;1.47;;;0.67;;
65182;SDS011;51771;51.068;-1.780;2023-07-28T08:19:42;2.92;;;0.95;;
65182;SDS011;51771;51.068;-1.780;2023-07-28T08:22:07;3.25;;;0.80;;
65182;SDS011;51771;51.068;-1.780;2023-07-28T08:24:32;0.90;;;0.40;;
65182;SDS011;51771;51.068;-1.780;2023-07-28T08:26:58;1.75;;;0.57;;
65182;SDS011;51771;51.068;-1.780;2023-07-28T08:29:23;0.43;;;0.30;;
65182;SDS011;51771;51.068;-1.780;2023-07-28T08:31:49;1.73;;;0.63;;
65182;SDS011;51771;51.068;-1.780;2023-07-28T08:34:14;3.43;;;1.00;;
65182;SDS011;51771;51.068;-1.780;2023-07-28T08:36:40;2.13;;;0.73;;
65182;SDS011;51771;51.068;-1.780;2023-07-28T08:39:06;2.10;;;0.70;;
65182;SDS011;51771;51.068;-1.780;2023-07-28T08:41:31;1.02;;;0.43;;
65182;SDS011;51771;51.068;-1.780;2023-07-28T08:43:56;2.45;;;0.52;;
65182;SDS011;51771;51.068;-1.780;2023-07-28T08:46:22;1.30;;;0.40;;
65182;SDS011;51771;51.068;-1.780;2023-07-28T08:48:48;0.43;;;0.38;;
65182;SDS011;51771;51.068;-1.780;2023-07-28T08:51:13;1.33;;;0.53;;
65182;SDS011;51771;51.068;-1.780;2023-07-28T08:53:39;1.00;;;0.43;;
65182;SDS011;51771;51.068;-1.780;2023-07-28T08:56:05;2.05;;;0.63;;
65182;SDS011;51771;51.068;-1.780;2023-07-28T08:58:30;2.97;;;0.95;;
65182;SDS011;51771;51.068;-1.780;2023-07-28T09:00:55;2.30;;;0.60;;
65182;SDS011;51771;51.068;-1.780;2023-07-28T09:03:23;1.25;;;0.30;;
65182;SDS011;51771;51.068;-1.780;2023-07-28T09:05:52;1.63;;;0.35;;
65182;SDS011;51771;51.068;-1.780;2023-07-28T09:08:18;0.85;;;0.20;;
65182;SDS011;51771;51.068;-1.780;2023-07-28T09:10:44;0.45;;;0.28;;
65182;SDS011;51771;51.068;-1.780;2023-07-28T09:13:10;1.17;;;0.35;;
65182;SDS011;51771;51.068;-1.780;2023-07-28T09:15:39;1.35;;;0.40;;
65182;SDS011;51771;51.068;-1.780;2023-07-28T09:18:07;2.40;;;0.52;;
65182;SDS011;51771;51.068;-1.780;2023-07-28T09:20:35;1.85;;;0.60;;
65182;SDS011;51771;51.068;-1.780;2023-07-28T09:23:01;1.83;;;0.60;;
65182;SDS011;51771;51.068;-1.780;2023-07-28T09:25:27;0.88;;;0.40;;
65182;SDS011;51771;51.068;-1.780;2023-07-28T09:27:56;2.00;;;0.63;;
65182;SDS011;51771;51.068;-1.780;2023-07-28T09:30:22;1.40;;;0.50;;
65182;SDS011;51771;51.068;-1.780;2023-07-28T09:32:52;1.98;;;0.57;;
65182;SDS011;51771;51.068;-1.780;2023-07-28T09:35:18;1.73;;;0.50;;
65182;SDS011;51771;51.068;-1.780;2023-07-28T09:37:45;2.20;;;0.73;;
65182;SDS011;51771;51.068;-1.780;2023-07-28T09:40:11;1.55;;;0.55;;
65182;SDS011;51771;51.068;-1.780;2023-07-28T09:42:37;3.53;;;0.73;;
65182;SDS011;51771;51.068;-1.780;2023-07-28T09:45:04;2.58;;;0.70;;
65182;SDS011;51771;51.068;-1.780;2023-07-28T09:47:30;2.20;;;0.90;;
65182;SDS011;51771;51.068;-1.780;2023-07-28T09:49:55;1.00;;;0.40;;
65182;SDS011;51771;51.068;-1.780;2023-07-28T09:52:23;2.38;;;0.80;;
65182;SDS011;51771;51.068;-1.780;2023-07-28T09:54:49;4.65;;;1.00;;
65182;SDS011;51771;51.068;-1.780;2023-07-28T09:57:20;2.80;;;0.90;;
65182;SDS011;51771;51.068;-1.780;2023-07-28T09:59:47;2.00;;;0.80;;
65182;SDS011;51771;51.068;-1.780;2023-07-28T10:02:13;1.65;;;0.80;;
65182;SDS011;51771;51.068;-1.780;2023-07-28T10:04:38;1.23;;;0.50;;
65182;SDS011;51771;51.068;-1.780;2023-07-28T10:07:04;2.40;;;1.00;;
65182;SDS011;51771;51.068;-1.780;2023-07-28T10:09:30;2.22;;;0.63;;
65182;SDS011;51771;51.068;-1.780;2023-07-28T10:11:58;1.67;;;0.60;;
65182;SDS011;51771;51.068;-1.780;2023-07-28T10:16:53;1.58;;;0.70;;
65182;SDS011;51771;51.068;-1.780;2023-07-28T10:19:23;2.05;;;0.70;;
65182;SDS011;51771;51.068;-1.780;2023-07-28T10:21:49;2.22;;;0.68;;
65182;SDS011;51771;51.068;-1.780;2023-07-28T10:24:14;1.98;;;0.70;;
65182;SDS011;51771;51.068;-1.780;2023-07-28T10:26:40;1.35;;;0.50;;
65182;SDS011;51771;51.068;-1.780;2023-07-28T10:29:12;1.10;;;0.40;;
65182;SDS011;51771;51.068;-1.780;2023-07-28T10:31:48;2.05;;;0.90;;
65182;SDS011;51771;51.068;-1.780;2023-07-28T10:34:15;1.95;;;0.50;;
65182;SDS011;51771;51.068;-1.780;2023-07-28T10:36:40;2.15;;;0.70;;
65182;SDS011;51771;51.068;-1.780;2023-07-28T10:41:36;2.13;;;0.68;;
65182;SDS011;51771;51.068;-1.780;2023-07-28T10:44:02;1.48;;;0.60;;
65182;SDS011;51771;51.068;-1.780;2023-07-28T10:46:27;1.52;;;0.60;;
65182;SDS011;51771;51.068;-1.780;2023-07-28T10:48:52;2.05;;;0.65;;
65182;SDS011;51771;51.068;-1.780;2023-07-28T10:51:27;1.13;;;0.45;;
65182;SDS011;51771;51.068;-1.780;2023-07-28T10:53:58;1.13;;;0.63;;
65182;SDS011;51771;51.068;-1.780;2023-07-28T10:56:24;2.50;;;0.80;;
65182;SDS011;51771;51.068;-1.780;2023-07-28T10:58:59;1.55;;;0.60;;
65182;SDS011;51771;51.068;-1.780;2023-07-28T11:01:38;2.88;;;0.80;;
65182;SDS011;51771;51.068;-1.780;2023-07-28T11:04:13;1.98;;;0.70;;
65182;SDS011;51771;51.068;-1.780;2023-07-28T11:06:46;2.55;;;0.80;;
65182;SDS011;51771;51.068;-1.780;2023-07-28T11:09:13;1.65;;;0.68;;
65182;SDS011;51771;51.068;-1.780;2023-07-28T11:11:39;2.35;;;0.57;;
65182;SDS011;51771;51.068;-1.780;2023-07-28T11:14:05;3.33;;;0.85;;
65182;SDS011;51771;51.068;-1.780;2023-07-28T11:16:38;1.70;;;0.55;;
65182;SDS011;51771;51.068;-1.780;2023-07-28T11:19:07;1.42;;;0.55;;
65182;SDS011;51771;51.068;-1.780;2023-07-28T11:21:37;2.10;;;0.70;;
65182;SDS011;51771;51.068;-1.780;2023-07-28T11:24:03;1.88;;;0.55;;
65182;SDS011;51771;51.068;-1.780;2023-07-28T11:26:28;2.45;;;0.75;;
65182;SDS011;51771;51.068;-1.780;2023-07-28T11:28:53;1.27;;;0.60;;
65182;SDS011;51771;51.068;-1.780;2023-07-28T11:31:22;2.03;;;0.77;;
65182;SDS011;51771;51.068;-1.780;2023-07-28T11:33:48;1.52;;;0.57;;
65182;SDS011;51771;51.068;-1.780;2023-07-28T11:36:13;2.05;;;0.80;;
65182;SDS011;51771;51.068;-1.780;2023-07-28T11:38:46;1.60;;;0.55;;
65182;SDS011;51771;51.068;-1.780;2023-07-28T11:41:11;1.25;;;0.57;;
65182;SDS011;51771;51.068;-1.780;2023-07-28T11:43:37;2.42;;;0.82;;
65182;SDS011;51771;51.068;-1.780;2023-07-28T11:46:02;2.72;;;0.60;;
65182;SDS011;51771;51.068;-1.780;2023-07-28T11:48:29;1.10;;;0.50;;
65182;SDS011;51771;51.068;-1.780;2023-07-28T11:50:55;1.70;;;0.60;;
65182;SDS011;51771;51.068;-1.780;2023-07-28T11:53:21;2.50;;;0.60;;
65182;SDS011;51771;51.068;-1.780;2023-07-28T11:55:47;1.88;;;0.65;;
65182;SDS011;51771;51.068;-1.780;2023-07-28T11:58:12;1.55;;;0.68;;
65182;SDS011;51771;51.068;-1.780;2023-07-28T12:00:39;1.95;;;0.60;;
65182;SDS011;51771;51.068;-1.780;2023-07-28T12:03:08;1.70;;;0.52;;
65182;SDS011;51771;51.068;-1.780;2023-07-28T12:05:40;2.10;;;0.68;;
65182;SDS011;51771;51.068;-1.780;2023-07-28T12:08:06;1.55;;;0.55;;
65182;SDS011;51771;51.068;-1.780;2023-07-28T12:10:33;2.10;;;0.60;;
65182;SDS011;51771;51.068;-1.780;2023-07-28T12:13:03;1.60;;;0.50;;
65182;SDS011;51771;51.068;-1.780;2023-07-28T12:15:30;1.00;;;0.38;;
65182;SDS011;51771;51.068;-1.780;2023-07-28T12:18:00;6.22;;;0.57;;
65182;SDS011;51771;51.068;-1.780;2023-07-28T12:20:26;2.60;;;0.70;;
65182;SDS011;51771;51.068;-1.780;2023-07-28T12:22:51;1.58;;;0.65;;
65182;SDS011;51771;51.068;-1.780;2023-07-28T12:25:16;1.63;;;0.53;;
65182;SDS011;51771;51.068;-1.780;2023-07-28T12:27:41;1.63;;;0.57;;
65182;SDS011;51771;51.068;-1.780;2023-07-28T12:30:07;1.95;;;0.75;;
65182;SDS011;51771;51.068;-1.780;2023-07-28T12:32:34;2.17;;;0.73;;
65182;SDS011;51771;51.068;-1.780;2023-07-28T12:34:59;2.35;;;0.77;;
65182;SDS011;51771;51.068;-1.780;2023-07-28T12:37:24;1.37;;;0.50;;
65182;SDS011;51771;51.068;-1.780;2023-07-28T12:39:49;2.33;;;0.90;;
65182;SDS011;51771;51.068;-1.780;2023-07-28T12:42:15;3.27;;;0.83;;
65182;SDS011;51771;51.068;-1.780;2023-07-28T12:44:41;3.22;;;1.15;;
65182;SDS011;51771;51.068;-1.780;2023-07-28T12:47:06;3.78;;;0.98;;
65182;SDS011;51771;51.068;-1.780;2023-07-28T12:49:31;2.77;;;0.80;;
65182;SDS011;51771;51.068;-1.780;2023-07-28T12:52:00;2.58;;;0.90;;
65182;SDS011;51771;51.068;-1.780;2023-07-28T12:54:26;2.15;;;0.80;;
65182;SDS011;51771;51.068;-1.780;2023-07-28T12:56:54;2.88;;;0.90;;
65182;SDS011;51771;51.068;-1.780;2023-07-28T12:59:19;2.13;;;0.73;;
65182;SDS011;51771;51.068;-1.780;2023-07-28T13:01:45;3.50;;;1.00;;
65182;SDS011;51771;51.068;-1.780;2023-07-28T13:04:10;2.55;;;0.73;;
65182;SDS011;51771;51.068;-1.780;2023-07-28T13:06:35;2.72;;;0.90;;
65182;SDS011;51771;51.068;-1.780;2023-07-28T13:09:01;3.85;;;0.88;;
65182;SDS011;51771;51.068;-1.780;2023-07-28T13:11:27;2.00;;;0.77;;
65182;SDS011;51771;51.068;-1.780;2023-07-28T13:13:52;2.50;;;0.80;;
65182;SDS011;51771;51.068;-1.780;2023-07-28T13:16:17;3.65;;;1.10;;
65182;SDS011;51771;51.068;-1.780;2023-07-28T13:18:42;5.28;;;1.10;;
65182;SDS011;51771;51.068;-1.780;2023-07-28T13:21:08;2.65;;;0.70;;
65182;SDS011;51771;51.068;-1.780;2023-07-28T13:23:33;3.30;;;1.13;;
65182;SDS011;51771;51.068;-1.780;2023-07-28T13:25:58;1.63;;;0.70;;
65182;SDS011;51771;51.068;-1.780;2023-07-28T13:28:24;2.90;;;0.70;;
65182;SDS011;51771;51.068;-1.780;2023-07-28T13:30:50;1.27;;;0.50;;
65182;SDS011;51771;51.068;-1.780;2023-07-28T13:33:15;1.95;;;0.82;;
65182;SDS011;51771;51.068;-1.780;2023-07-28T13:35:41;4.00;;;0.77;;
65182;SDS011;51771;51.068;-1.780;2023-07-28T13:38:06;2.37;;;0.80;;
65182;SDS011;51771;51.068;-1.780;2023-07-28T13:40:31;2.45;;;0.85;;
65182;SDS011;51771;51.068;-1.780;2023-07-28T13:42:56;2.00;;;0.73;;
65182;SDS011;51771;51.068;-1.780;2023-07-28T13:45:22;1.30;;;0.65;;
65182;SDS011;51771;51.068;-1.780;2023-07-28T13:47:47;2.25;;;0.65;;
65182;SDS011;51771;51.068;-1.780;2023-07-28T13:50:12;3.03;;;0.80;;
65182;SDS011;51771;51.068;-1.780;2023-07-28T13:52:38;2.60;;;0.90;;
65182;SDS011;51771;51.068;-1.780;2023-07-28T13:55:03;3.17;;;1.15;;
65182;SDS011;51771;51.068;-1.780;2023-07-28T13:57:30;3.67;;;0.95;;
65182;SDS011;51771;51.068;-1.780;2023-07-28T13:59:56;3.33;;;1.20;;
65182;SDS011;51771;51.068;-1.780;2023-07-28T14:02:21;3.92;;;1.00;;
65182;SDS011;51771;51.068;-1.780;2023-07-28T14:04:46;2.25;;;0.70;;
65182;SDS011;51771;51.068;-1.780;2023-07-28T14:07:11;2.60;;;0.97;;
65182;SDS011;51771;51.068;-1.780;2023-07-28T14:09:37;3.07;;;0.90;;
65182;SDS011;51771;51.068;-1.780;2023-07-28T14:12:03;1.88;;;0.70;;
65182;SDS011;51771;51.068;-1.780;2023-07-28T14:14:28;3.58;;;0.88;;
65182;SDS011;51771;51.068;-1.780;2023-07-28T14:16:53;5.20;;;0.90;;
65182;SDS011;51771;51.068;-1.780;2023-07-28T14:19:19;2.20;;;0.60;;
65182;SDS011;51771;51.068;-1.780;2023-07-28T14:21:44;1.45;;;0.60;;
65182;SDS011;51771;51.068;-1.780;2023-07-28T14:24:09;2.75;;;0.90;;
65182;SDS011;51771;51.068;-1.780;2023-07-28T14:26:34;2.03;;;0.70;;
65182;SDS011;51771;51.068;-1.780;2023-07-28T14:29:00;3.33;;;0.98;;
65182;SDS011;51771;51.068;-1.780;2023-07-28T14:31:25;2.83;;;0.90;;
65182;SDS011;51771;51.068;-1.780;2023-07-28T14:33:50;3.00;;;0.83;;
65182;SDS011;51771;51.068;-1.780;2023-07-28T14:36:15;1.98;;;0.57;;